sensor_id;sensor_type;location;lat;lon;timestamp;temperature;humidity
75210;DHT22;63796;53.136;14.882;2023-04-16T00:02:14;11.80;99.90
75210;DHT22;63796;53.136;14.882;2023-04-16T00:04:41;11.90;99.90
75210;DHT22;63796;53.136;14.882;2023-04-16T00:07:09;11.80;99.90
75210;DHT22;63796;53.136;14.882;2023-04-16T00:09:36;11.80;99.90
75210;DHT22;63796;53.136;14.882;2023-04-16T00:12:04;11.70;99.90
75210;DHT22;63796;53.136;14.882;2023-04-16T00:14:32;11.70;99.90
75210;DHT22;63796;53.136;14.882;2023-04-16T00:16:59;11.70;99.90
75210;DHT22;63796;53.136;14.882;2023-04-16T00:19:27;11.60;99.90
75210;DHT22;63796;53.136;14.882;2023-04-16T00:21:54;11.60;99.90
75210;DHT22;63796;53.136;14.882;2023-04-16T00:24:22;11.60;99.90
75210;DHT22;63796;53.136;14.882;2023-04-16T00:26:49;11.70;99.90
75210;DHT22;63796;53.136;14.882;2023-04-16T00:29:17;11.60;99.90
75210;DHT22;63796;53.136;14.882;2023-04-16T00:31:44;11.70;99.90
75210;DHT22;63796;53.136;14.882;2023-04-16T00:34:12;11.60;99.90
75210;DHT22;63796;53.136;14.882;2023-04-16T00:36:39;11.70;99.90
75210;DHT22;63796;53.136;14.882;2023-04-16T00:39:07;11.70;99.90
75210;DHT22;63796;53.136;14.882;2023-04-16T00:41:34;11.80;99.90
75210;DHT22;63796;53.136;14.882;2023-04-16T00:44:03;11.80;99.90
75210;DHT22;63796;53.136;14.882;2023-04-16T00:46:30;11.80;99.90
75210;DHT22;63796;53.136;14.882;2023-04-16T00:48:58;11.70;99.90
75210;DHT22;63796;53.136;14.882;2023-04-16T00:51:27;11.70;99.90
75210;DHT22;63796;53.136;14.882;2023-04-16T00:53:56;11.80;99.90
75210;DHT22;63796;53.136;14.882;2023-04-16T00:56:23;11.80;99.90
75210;DHT22;63796;53.136;14.882;2023-04-16T00:58:51;11.80;99.90
75210;DHT22;63796;53.136;14.882;2023-04-16T01:01:21;11.80;99.90
75210;DHT22;63796;53.136;14.882;2023-04-16T01:03:49;11.90;99.90
75210;DHT22;63796;53.136;14.882;2023-04-16T01:06:17;11.80;99.90
75210;DHT22;63796;53.136;14.882;2023-04-16T01:08:45;11.80;99.90
75210;DHT22;63796;53.136;14.882;2023-04-16T01:11:14;11.80;99.90
75210;DHT22;63796;53.136;14.882;2023-04-16T01:13:42;11.80;99.90
75210;DHT22;63796;53.136;14.882;2023-04-16T01:16:10;11.90;99.90
75210;DHT22;63796;53.136;14.882;2023-04-16T01:18:38;12.00;99.90
75210;DHT22;63796;53.136;14.882;2023-04-16T01:21:06;12.00;99.90
75210;DHT22;63796;53.136;14.882;2023-04-16T01:23:33;11.90;99.90
75210;DHT22;63796;53.136;14.882;2023-04-16T01:26:01;11.90;99.90
75210;DHT22;63796;53.136;14.882;2023-04-16T01:28:28;11.80;99.90
75210;DHT22;63796;53.136;14.882;2023-04-16T01:30:56;11.80;99.90
75210;DHT22;63796;53.136;14.882;2023-04-16T01:33:23;11.70;99.90
75210;DHT22;63796;53.136;14.882;2023-04-16T01:35:51;11.80;99.90
75210;DHT22;63796;53.136;14.882;2023-04-16T01:38:18;11.70;99.90
75210;DHT22;63796;53.136;14.882;2023-04-16T01:40:45;11.80;99.90
75210;DHT22;63796;53.136;14.882;2023-04-16T01:43:13;11.80;99.90
75210;DHT22;63796;53.136;14.882;2023-04-16T01:45:41;11.70;99.90
75210;DHT22;63796;53.136;14.882;2023-04-16T01:48:08;11.80;99.90
75210;DHT22;63796;53.136;14.882;2023-04-16T01:50:35;11.80;99.90
75210;DHT22;63796;53.136;14.882;2023-04-16T01:53:03;11.80;99.90
75210;DHT22;63796;53.136;14.882;2023-04-16T01:55:34;11.80;99.90
75210;DHT22;63796;53.136;14.882;2023-04-16T01:58:01;12.00;99.90
75210;DHT22;63796;53.136;14.882;2023-04-16T02:00:28;12.00;99.90
75210;DHT22;63796;53.136;14.882;2023-04-16T02:02:56;11.90;99.90
75210;DHT22;63796;53.136;14.882;2023-04-16T02:05:24;11.90;99.90
75210;DHT22;63796;53.136;14.882;2023-04-16T02:07:51;11.90;99.90
75210;DHT22;63796;53.136;14.882;2023-04-16T02:10:19;11.80;99.90
75210;DHT22;63796;53.136;14.882;2023-04-16T02:12:46;11.80;99.90
75210;DHT22;63796;53.136;14.882;2023-04-16T02:15:13;12.00;99.90
75210;DHT22;63796;53.136;14.882;2023-04-16T02:17:42;11.90;99.90
75210;DHT22;63796;53.136;14.882;2023-04-16T02:20:09;11.70;99.90
75210;DHT22;63796;53.136;14.882;2023-04-16T02:22:37;11.70;99.90
75210;DHT22;63796;53.136;14.882;2023-04-16T02:25:04;11.60;99.90
75210;DHT22;63796;53.136;14.882;2023-04-16T02:27:32;11.70;99.90
75210;DHT22;63796;53.136;14.882;2023-04-16T02:29:59;11.80;99.90
75210;DHT22;63796;53.136;14.882;2023-04-16T02:32:27;11.70;99.90
75210;DHT22;63796;53.136;14.882;2023-04-16T02:34:54;11.60;99.90
75210;DHT22;63796;53.136;14.882;2023-04-16T02:37:23;11.70;99.90
75210;DHT22;63796;53.136;14.882;2023-04-16T02:39:51;11.60;99.90
75210;DHT22;63796;53.136;14.882;2023-04-16T02:42:19;11.50;99.90
75210;DHT22;63796;53.136;14.882;2023-04-16T02:44:46;11.60;99.90
75210;DHT22;63796;53.136;14.882;2023-04-16T02:47:13;11.40;99.90
75210;DHT22;63796;53.136;14.882;2023-04-16T02:49:41;11.40;99.90
75210;DHT22;63796;53.136;14.882;2023-04-16T02:52:08;11.60;99.90
75210;DHT22;63796;53.136;14.882;2023-04-16T02:54:35;11.70;99.90
75210;DHT22;63796;53.136;14.882;2023-04-16T02:57:02;11.60;99.90
75210;DHT22;63796;53.136;14.882;2023-04-16T02:59:30;11.50;99.90
75210;DHT22;63796;53.136;14.882;2023-04-16T03:01:57;11.60;99.90
75210;DHT22;63796;53.136;14.882;2023-04-16T03:04:24;11.50;99.90
75210;DHT22;63796;53.136;14.882;2023-04-16T03:06:52;11.50;99.90
75210;DHT22;63796;53.136;14.882;2023-04-16T03:09:19;11.50;99.90
75210;DHT22;63796;53.136;14.882;2023-04-16T03:11:46;11.40;99.90
75210;DHT22;63796;53.136;14.882;2023-04-16T03:14:14;11.40;99.90
75210;DHT22;63796;53.136;14.882;2023-04-16T03:16:41;11.50;99.90
75210;DHT22;63796;53.136;14.882;2023-04-16T03:19:08;11.50;99.90
75210;DHT22;63796;53.136;14.882;2023-04-16T03:21:36;11.50;99.90
75210;DHT22;63796;53.136;14.882;2023-04-16T03:24:04;11.60;99.90
75210;DHT22;63796;53.136;14.882;2023-04-16T03:26:31;11.60;99.90
75210;DHT22;63796;53.136;14.882;2023-04-16T03:28:58;11.50;99.90
75210;DHT22;63796;53.136;14.882;2023-04-16T03:31:28;11.60;99.90
75210;DHT22;63796;53.136;14.882;2023-04-16T03:33:55;11.40;99.90
75210;DHT22;63796;53.136;14.882;2023-04-16T03:36:23;11.50;99.90
75210;DHT22;63796;53.136;14.882;2023-04-16T03:38:51;11.50;99.90
75210;DHT22;63796;53.136;14.882;2023-04-16T03:41:18;11.50;99.90
75210;DHT22;63796;53.136;14.882;2023-04-16T03:43:46;11.50;99.90
75210;DHT22;63796;53.136;14.882;2023-04-16T03:46:13;11.40;99.90
75210;DHT22;63796;53.136;14.882;2023-04-16T03:48:40;11.30;99.90
75210;DHT22;63796;53.136;14.882;2023-04-16T03:51:08;11.40;99.90
75210;DHT22;63796;53.136;14.882;2023-04-16T03:53:35;11.30;99.90
75210;DHT22;63796;53.136;14.882;2023-04-16T03:58:41;11.40;99.90
75210;DHT22;63796;53.136;14.882;2023-04-16T04:01:09;11.20;99.90
75210;DHT22;63796;53.136;14.882;2023-04-16T04:03:36;11.30;99.90
75210;DHT22;63796;53.136;14.882;2023-04-16T04:06:07;11.40;99.90
75210;DHT22;63796;53.136;14.882;2023-04-16T04:08:35;11.50;99.90
75210;DHT22;63796;53.136;14.882;2023-04-16T04:11:02;11.40;99.90
75210;DHT22;63796;53.136;14.882;2023-04-16T04:13:30;11.30;99.90
75210;DHT22;63796;53.136;14.882;2023-04-16T04:15:57;11.30;99.90
75210;DHT22;63796;53.136;14.882;2023-04-16T04:18:24;11.20;99.90
75210;DHT22;63796;53.136;14.882;2023-04-16T04:20:52;11.40;99.90
75210;DHT22;63796;53.136;14.882;2023-04-16T04:23:19;11.50;99.90
75210;DHT22;63796;53.136;14.882;2023-04-16T04:25:47;11.40;99.90
75210;DHT22;63796;53.136;14.882;2023-04-16T04:28:15;11.30;99.90
75210;DHT22;63796;53.136;14.882;2023-04-16T04:30:42;11.20;99.90
75210;DHT22;63796;53.136;14.882;2023-04-16T04:33:09;11.30;99.90
75210;DHT22;63796;53.136;14.882;2023-04-16T04:35:37;11.30;99.90
75210;DHT22;63796;53.136;14.882;2023-04-16T04:38:04;11.10;99.90
75210;DHT22;63796;53.136;14.882;2023-04-16T04:40:32;11.00;99.90
75210;DHT22;63796;53.136;14.882;2023-04-16T04:42:59;11.20;99.90
75210;DHT22;63796;53.136;14.882;2023-04-16T04:45:27;11.10;99.90
75210;DHT22;63796;53.136;14.882;2023-04-16T04:47:57;11.20;99.90
75210;DHT22;63796;53.136;14.882;2023-04-16T04:50:25;11.30;99.90
75210;DHT22;63796;53.136;14.882;2023-04-16T04:52:52;11.30;99.90
75210;DHT22;63796;53.136;14.882;2023-04-16T04:55:19;11.30;99.90
75210;DHT22;63796;53.136;14.882;2023-04-16T04:57:47;11.40;99.90
75210;DHT22;63796;53.136;14.882;2023-04-16T05:00:15;11.30;99.90
75210;DHT22;63796;53.136;14.882;2023-04-16T05:02:42;11.10;99.90
75210;DHT22;63796;53.136;14.882;2023-04-16T05:05:10;11.20;99.90
75210;DHT22;63796;53.136;14.882;2023-04-16T05:07:37;11.10;99.90
75210;DHT22;63796;53.136;14.882;2023-04-16T05:10:05;11.20;99.90
75210;DHT22;63796;53.136;14.882;2023-04-16T05:12:32;11.30;99.90
75210;DHT22;63796;53.136;14.882;2023-04-16T05:15:00;11.10;99.90
75210;DHT22;63796;53.136;14.882;2023-04-16T05:17:27;11.20;99.90
75210;DHT22;63796;53.136;14.882;2023-04-16T05:19:55;11.20;99.90
75210;DHT22;63796;53.136;14.882;2023-04-16T05:22:22;11.30;99.90
75210;DHT22;63796;53.136;14.882;2023-04-16T05:24:49;11.40;99.90
75210;DHT22;63796;53.136;14.882;2023-04-16T05:27:17;11.40;99.90
75210;DHT22;63796;53.136;14.882;2023-04-16T05:29:44;11.50;99.90
75210;DHT22;63796;53.136;14.882;2023-04-16T05:32:11;11.50;99.90
75210;DHT22;63796;53.136;14.882;2023-04-16T05:34:38;11.40;99.90
75210;DHT22;63796;53.136;14.882;2023-04-16T05:37:06;11.40;99.90
75210;DHT22;63796;53.136;14.882;2023-04-16T05:39:33;11.40;99.90
75210;DHT22;63796;53.136;14.882;2023-04-16T05:42:01;11.40;99.90
75210;DHT22;63796;53.136;14.882;2023-04-16T05:44:28;11.20;99.90
75210;DHT22;63796;53.136;14.882;2023-04-16T05:46:55;11.20;99.90
75210;DHT22;63796;53.136;14.882;2023-04-16T05:49:22;11.20;99.90
75210;DHT22;63796;53.136;14.882;2023-04-16T05:51:50;11.30;99.90
75210;DHT22;63796;53.136;14.882;2023-04-16T05:54:17;11.30;99.90
75210;DHT22;63796;53.136;14.882;2023-04-16T05:56:45;11.30;99.90
75210;DHT22;63796;53.136;14.882;2023-04-16T05:59:12;11.20;99.90
75210;DHT22;63796;53.136;14.882;2023-04-16T06:01:39;11.30;99.90
75210;DHT22;63796;53.136;14.882;2023-04-16T06:04:07;11.20;99.90
75210;DHT22;63796;53.136;14.882;2023-04-16T06:06:34;11.20;99.90
75210;DHT22;63796;53.136;14.882;2023-04-16T06:09:03;11.30;99.90
75210;DHT22;63796;53.136;14.882;2023-04-16T06:11:31;11.40;99.90
75210;DHT22;63796;53.136;14.882;2023-04-16T06:14:01;11.40;99.90
75210;DHT22;63796;53.136;14.882;2023-04-16T06:16:28;11.30;99.90
75210;DHT22;63796;53.136;14.882;2023-04-16T06:18:56;11.30;99.90
75210;DHT22;63796;53.136;14.882;2023-04-16T06:21:23;11.40;99.90
75210;DHT22;63796;53.136;14.882;2023-04-16T06:23:50;11.40;99.90
75210;DHT22;63796;53.136;14.882;2023-04-16T06:26:18;11.60;99.90
75210;DHT22;63796;53.136;14.882;2023-04-16T06:28:45;11.70;99.90
75210;DHT22;63796;53.136;14.882;2023-04-16T06:31:12;11.80;99.90
75210;DHT22;63796;53.136;14.882;2023-04-16T06:33:40;11.90;99.90
75210;DHT22;63796;53.136;14.882;2023-04-16T06:36:07;11.60;99.90
75210;DHT22;63796;53.136;14.882;2023-04-16T06:38:35;11.70;99.90
75210;DHT22;63796;53.136;14.882;2023-04-16T06:41:03;11.50;99.90
75210;DHT22;63796;53.136;14.882;2023-04-16T06:43:30;11.70;99.90
75210;DHT22;63796;53.136;14.882;2023-04-16T06:45:59;11.80;99.90
75210;DHT22;63796;53.136;14.882;2023-04-16T06:48:26;11.70;99.90
75210;DHT22;63796;53.136;14.882;2023-04-16T06:50:54;11.70;99.90
75210;DHT22;63796;53.136;14.882;2023-04-16T06:53:22;11.50;99.90
75210;DHT22;63796;53.136;14.882;2023-04-16T06:55:50;11.50;99.90
75210;DHT22;63796;53.136;14.882;2023-04-16T06:58:17;11.20;99.90
75210;DHT22;63796;53.136;14.882;2023-04-16T07:00:44;11.20;99.90
75210;DHT22;63796;53.136;14.882;2023-04-16T07:03:12;11.50;99.90
75210;DHT22;63796;53.136;14.882;2023-04-16T07:05:40;11.50;99.90
75210;DHT22;63796;53.136;14.882;2023-04-16T07:08:07;11.60;99.90
75210;DHT22;63796;53.136;14.882;2023-04-16T07:10:34;11.90;99.90
75210;DHT22;63796;53.136;14.882;2023-04-16T07:13:01;12.10;99.90
75210;DHT22;63796;53.136;14.882;2023-04-16T07:15:29;12.00;99.90
75210;DHT22;63796;53.136;14.882;2023-04-16T07:17:56;11.90;99.90
75210;DHT22;63796;53.136;14.882;2023-04-16T07:20:23;12.00;99.90
75210;DHT22;63796;53.136;14.882;2023-04-16T07:22:51;12.20;99.90
75210;DHT22;63796;53.136;14.882;2023-04-16T07:25:18;12.10;99.90
75210;DHT22;63796;53.136;14.882;2023-04-16T07:27:45;12.30;99.90
75210;DHT22;63796;53.136;14.882;2023-04-16T07:30:13;12.30;99.90
75210;DHT22;63796;53.136;14.882;2023-04-16T07:32:40;11.90;99.90
75210;DHT22;63796;53.136;14.882;2023-04-16T07:35:07;11.60;99.90
75210;DHT22;63796;53.136;14.882;2023-04-16T07:37:35;11.80;99.90
75210;DHT22;63796;53.136;14.882;2023-04-16T07:40:02;11.90;99.90
75210;DHT22;63796;53.136;14.882;2023-04-16T07:42:30;11.60;99.90
75210;DHT22;63796;53.136;14.882;2023-04-16T07:44:57;11.60;99.90
75210;DHT22;63796;53.136;14.882;2023-04-16T07:47:25;11.70;99.90
75210;DHT22;63796;53.136;14.882;2023-04-16T07:49:53;12.00;99.90
75210;DHT22;63796;53.136;14.882;2023-04-16T07:52:20;12.60;99.90
75210;DHT22;63796;53.136;14.882;2023-04-16T07:54:47;13.10;99.90
75210;DHT22;63796;53.136;14.882;2023-04-16T07:57:15;13.40;99.90
75210;DHT22;63796;53.136;14.882;2023-04-16T07:59:43;13.30;99.90
75210;DHT22;63796;53.136;14.882;2023-04-16T08:02:11;13.50;99.90
75210;DHT22;63796;53.136;14.882;2023-04-16T08:04:42;13.60;99.90
75210;DHT22;63796;53.136;14.882;2023-04-16T08:07:10;13.90;99.90
75210;DHT22;63796;53.136;14.882;2023-04-16T08:09:45;13.40;99.90
75210;DHT22;63796;53.136;14.882;2023-04-16T08:12:22;13.20;99.90
75210;DHT22;63796;53.136;14.882;2023-04-16T08:14:49;13.00;99.90
75210;DHT22;63796;53.136;14.882;2023-04-16T08:17:17;12.70;99.90
75210;DHT22;63796;53.136;14.882;2023-04-16T08:19:44;12.70;99.90
75210;DHT22;63796;53.136;14.882;2023-04-16T08:22:12;12.80;99.90
75210;DHT22;63796;53.136;14.882;2023-04-16T08:24:39;13.20;99.90
75210;DHT22;63796;53.136;14.882;2023-04-16T08:27:06;13.50;99.90
75210;DHT22;63796;53.136;14.882;2023-04-16T08:29:45;13.70;99.90
75210;DHT22;63796;53.136;14.882;2023-04-16T08:32:12;13.80;99.90
75210;DHT22;63796;53.136;14.882;2023-04-16T08:34:40;13.70;99.90
75210;DHT22;63796;53.136;14.882;2023-04-16T08:37:08;13.30;99.90
75210;DHT22;63796;53.136;14.882;2023-04-16T08:39:36;13.20;99.90
75210;DHT22;63796;53.136;14.882;2023-04-16T08:42:04;12.60;99.90
75210;DHT22;63796;53.136;14.882;2023-04-16T08:44:33;12.30;99.90
75210;DHT22;63796;53.136;14.882;2023-04-16T08:47:03;12.40;99.90
75210;DHT22;63796;53.136;14.882;2023-04-16T08:49:35;12.50;99.90
75210;DHT22;63796;53.136;14.882;2023-04-16T08:52:10;12.60;99.90
75210;DHT22;63796;53.136;14.882;2023-04-16T08:54:45;12.60;99.90
75210;DHT22;63796;53.136;14.882;2023-04-16T08:57:23;12.40;99.90
75210;DHT22;63796;53.136;14.882;2023-04-16T08:59:55;12.50;99.90
75210;DHT22;63796;53.136;14.882;2023-04-16T09:02:24;12.30;99.90
75210;DHT22;63796;53.136;14.882;2023-04-16T09:04:53;11.60;99.90
75210;DHT22;63796;53.136;14.882;2023-04-16T09:07:22;11.90;99.90
75210;DHT22;63796;53.136;14.882;2023-04-16T09:09:50;12.30;99.90
75210;DHT22;63796;53.136;14.882;2023-04-16T09:12:22;12.20;99.90
75210;DHT22;63796;53.136;14.882;2023-04-16T09:14:50;12.30;99.90
75210;DHT22;63796;53.136;14.882;2023-04-16T09:17:17;12.50;99.90
75210;DHT22;63796;53.136;14.882;2023-04-16T09:19:45;12.40;99.90
75210;DHT22;63796;53.136;14.882;2023-04-16T09:22:12;12.40;99.90
75210;DHT22;63796;53.136;14.882;2023-04-16T09:24:40;12.60;99.90
75210;DHT22;63796;53.136;14.882;2023-04-16T09:27:07;12.60;99.90
75210;DHT22;63796;53.136;14.882;2023-04-16T09:29:36;12.70;99.90
75210;DHT22;63796;53.136;14.882;2023-04-16T09:32:05;13.00;99.90
75210;DHT22;63796;53.136;14.882;2023-04-16T09:34:36;13.00;99.90
75210;DHT22;63796;53.136;14.882;2023-04-16T09:37:20;13.30;99.90
75210;DHT22;63796;53.136;14.882;2023-04-16T09:39:57;13.40;99.90
75210;DHT22;63796;53.136;14.882;2023-04-16T09:42:28;13.20;99.90
75210;DHT22;63796;53.136;14.882;2023-04-16T09:44:58;13.30;99.90
75210;DHT22;63796;53.136;14.882;2023-04-16T09:47:39;13.10;99.90
75210;DHT22;63796;53.136;14.882;2023-04-16T09:50:15;13.00;99.90
75210;DHT22;63796;53.136;14.882;2023-04-16T09:52:46;13.00;99.90
75210;DHT22;63796;53.136;14.882;2023-04-16T09:55:21;12.80;99.90
75210;DHT22;63796;53.136;14.882;2023-04-16T09:57:52;12.60;99.90
75210;DHT22;63796;53.136;14.882;2023-04-16T10:00:24;12.40;99.90
75210;DHT22;63796;53.136;14.882;2023-04-16T10:03:02;12.50;99.90
75210;DHT22;63796;53.136;14.882;2023-04-16T10:05:33;12.50;99.90
75210;DHT22;63796;53.136;14.882;2023-04-16T10:08:09;12.80;99.90
75210;DHT22;63796;53.136;14.882;2023-04-16T10:10:38;12.90;99.90
75210;DHT22;63796;53.136;14.882;2023-04-16T10:13:05;13.20;99.90
75210;DHT22;63796;53.136;14.882;2023-04-16T10:15:33;13.00;99.90
75210;DHT22;63796;53.136;14.882;2023-04-16T10:18:01;12.80;99.90
75210;DHT22;63796;53.136;14.882;2023-04-16T10:20:29;13.40;99.90
75210;DHT22;63796;53.136;14.882;2023-04-16T10:22:57;13.60;99.90
75210;DHT22;63796;53.136;14.882;2023-04-16T10:25:24;13.60;99.90
75210;DHT22;63796;53.136;14.882;2023-04-16T10:27:53;13.20;99.90
75210;DHT22;63796;53.136;14.882;2023-04-16T10:30:21;13.40;99.90
75210;DHT22;63796;53.136;14.882;2023-04-16T10:32:49;13.50;99.90
75210;DHT22;63796;53.136;14.882;2023-04-16T10:35:20;13.40;99.90
75210;DHT22;63796;53.136;14.882;2023-04-16T10:37:48;13.40;99.90
75210;DHT22;63796;53.136;14.882;2023-04-16T10:40:24;13.60;99.90
75210;DHT22;63796;53.136;14.882;2023-04-16T10:42:56;13.40;99.90
75210;DHT22;63796;53.136;14.882;2023-04-16T10:45:26;13.60;99.90
75210;DHT22;63796;53.136;14.882;2023-04-16T10:47:57;13.40;99.90
75210;DHT22;63796;53.136;14.882;2023-04-16T10:50:32;13.60;99.90
75210;DHT22;63796;53.136;14.882;2023-04-16T10:53:19;13.60;99.90
75210;DHT22;63796;53.136;14.882;2023-04-16T10:58:29;13.20;99.90
75210;DHT22;63796;53.136;14.882;2023-04-16T11:01:05;13.30;99.90
75210;DHT22;63796;53.136;14.882;2023-04-16T11:03:44;13.00;99.90
75210;DHT22;63796;53.136;14.882;2023-04-16T11:06:17;12.90;99.90
75210;DHT22;63796;53.136;14.882;2023-04-16T11:08:50;12.80;99.90
75210;DHT22;63796;53.136;14.882;2023-04-16T11:11:21;13.20;99.90
75210;DHT22;63796;53.136;14.882;2023-04-16T11:13:48;13.50;99.90
75210;DHT22;63796;53.136;14.882;2023-04-16T11:16:23;13.70;99.90
75210;DHT22;63796;53.136;14.882;2023-04-16T11:18:52;14.00;99.90
75210;DHT22;63796;53.136;14.882;2023-04-16T11:21:33;14.50;99.90
75210;DHT22;63796;53.136;14.882;2023-04-16T11:24:02;14.40;99.90
75210;DHT22;63796;53.136;14.882;2023-04-16T11:26:29;14.20;99.90
75210;DHT22;63796;53.136;14.882;2023-04-16T11:28:57;14.30;99.90
75210;DHT22;63796;53.136;14.882;2023-04-16T11:31:26;13.70;99.90
75210;DHT22;63796;53.136;14.882;2023-04-16T11:33:54;13.40;99.90
75210;DHT22;63796;53.136;14.882;2023-04-16T11:36:22;13.50;99.90
75210;DHT22;63796;53.136;14.882;2023-04-16T11:39:09;13.50;99.90
75210;DHT22;63796;53.136;14.882;2023-04-16T11:41:43;13.60;99.90
75210;DHT22;63796;53.136;14.882;2023-04-16T11:44:19;13.60;99.90
75210;DHT22;63796;53.136;14.882;2023-04-16T11:46:48;14.00;99.90
75210;DHT22;63796;53.136;14.882;2023-04-16T11:49:16;14.20;99.90
75210;DHT22;63796;53.136;14.882;2023-04-16T11:51:52;14.30;99.90
75210;DHT22;63796;53.136;14.882;2023-04-16T11:54:21;14.30;99.90
75210;DHT22;63796;53.136;14.882;2023-04-16T11:56:51;14.20;99.90
75210;DHT22;63796;53.136;14.882;2023-04-16T11:59:20;14.10;99.90
75210;DHT22;63796;53.136;14.882;2023-04-16T12:01:49;13.90;99.90
75210;DHT22;63796;53.136;14.882;2023-04-16T12:04:24;13.80;99.90
75210;DHT22;63796;53.136;14.882;2023-04-16T12:07:11;13.90;99.90
75210;DHT22;63796;53.136;14.882;2023-04-16T12:09:41;14.10;99.90
75210;DHT22;63796;53.136;14.882;2023-04-16T12:12:28;14.30;99.90
75210;DHT22;63796;53.136;14.882;2023-04-16T12:14:58;14.20;99.90
75210;DHT22;63796;53.136;14.882;2023-04-16T12:17:32;14.20;99.90
75210;DHT22;63796;53.136;14.882;2023-04-16T12:20:03;14.20;99.90
75210;DHT22;63796;53.136;14.882;2023-04-16T12:22:44;14.20;99.90
75210;DHT22;63796;53.136;14.882;2023-04-16T12:25:14;14.10;99.90
75210;DHT22;63796;53.136;14.882;2023-04-16T12:27:53;14.00;99.90
75210;DHT22;63796;53.136;14.882;2023-04-16T12:30:22;14.10;99.90
75210;DHT22;63796;53.136;14.882;2023-04-16T12:32:50;14.10;99.90
75210;DHT22;63796;53.136;14.882;2023-04-16T12:35:29;14.40;99.90
75210;DHT22;63796;53.136;14.882;2023-04-16T12:37:58;14.30;99.90
75210;DHT22;63796;53.136;14.882;2023-04-16T12:40:26;14.40;99.90
75210;DHT22;63796;53.136;14.882;2023-04-16T12:42:53;14.40;99.90
75210;DHT22;63796;53.136;14.882;2023-04-16T12:45:21;14.60;99.90
75210;DHT22;63796;53.136;14.882;2023-04-16T12:47:48;14.50;99.90
75210;DHT22;63796;53.136;14.882;2023-04-16T12:50:17;14.30;99.90
75210;DHT22;63796;53.136;14.882;2023-04-16T12:52:44;14.30;99.90
75210;DHT22;63796;53.136;14.882;2023-04-16T12:55:12;14.30;99.90
75210;DHT22;63796;53.136;14.882;2023-04-16T12:57:40;14.10;99.90
75210;DHT22;63796;53.136;14.882;2023-04-16T13:00:07;14.20;99.90
75210;DHT22;63796;53.136;14.882;2023-04-16T13:02:36;14.30;99.90
75210;DHT22;63796;53.136;14.882;2023-04-16T13:05:04;14.60;99.90
75210;DHT22;63796;53.136;14.882;2023-04-16T13:07:31;14.70;99.90
75210;DHT22;63796;53.136;14.882;2023-04-16T13:09:59;14.80;99.90
75210;DHT22;63796;53.136;14.882;2023-04-16T13:12:27;15.10;99.90
75210;DHT22;63796;53.136;14.882;2023-04-16T13:14:54;14.80;99.90
75210;DHT22;63796;53.136;14.882;2023-04-16T13:17:21;14.70;99.90
75210;DHT22;63796;53.136;14.882;2023-04-16T13:19:49;14.80;99.90
75210;DHT22;63796;53.136;14.882;2023-04-16T13:22:16;14.60;99.90
75210;DHT22;63796;53.136;14.882;2023-04-16T13:24:43;14.10;99.90
75210;DHT22;63796;53.136;14.882;2023-04-16T13:27:12;13.20;99.90
75210;DHT22;63796;53.136;14.882;2023-04-16T13:29:41;12.60;99.90
75210;DHT22;63796;53.136;14.882;2023-04-16T13:32:09;12.80;99.90
75210;DHT22;63796;53.136;14.882;2023-04-16T13:34:36;13.00;99.90
75210;DHT22;63796;53.136;14.882;2023-04-16T13:37:03;13.30;99.90
75210;DHT22;63796;53.136;14.882;2023-04-16T13:39:30;13.40;99.90
75210;DHT22;63796;53.136;14.882;2023-04-16T13:41:58;13.60;99.90
75210;DHT22;63796;53.136;14.882;2023-04-16T13:44:25;13.70;99.90
75210;DHT22;63796;53.136;14.882;2023-04-16T13:46:53;13.70;99.90
75210;DHT22;63796;53.136;14.882;2023-04-16T13:49:20;13.50;99.90
75210;DHT22;63796;53.136;14.882;2023-04-16T13:51:48;13.40;99.90
75210;DHT22;63796;53.136;14.882;2023-04-16T13:54:16;13.30;99.90
75210;DHT22;63796;53.136;14.882;2023-04-16T13:56:44;13.20;99.90
75210;DHT22;63796;53.136;14.882;2023-04-16T13:59:11;13.30;99.90
75210;DHT22;63796;53.136;14.882;2023-04-16T14:01:41;13.30;99.90
75210;DHT22;63796;53.136;14.882;2023-04-16T14:04:08;13.50;99.90
75210;DHT22;63796;53.136;14.882;2023-04-16T14:06:36;13.70;99.90
75210;DHT22;63796;53.136;14.882;2023-04-16T14:09:03;13.90;99.90
75210;DHT22;63796;53.136;14.882;2023-04-16T14:11:30;13.90;99.90
75210;DHT22;63796;53.136;14.882;2023-04-16T14:13:57;14.00;99.90
75210;DHT22;63796;53.136;14.882;2023-04-16T14:16:25;14.30;99.90
75210;DHT22;63796;53.136;14.882;2023-04-16T14:18:53;14.40;99.90
75210;DHT22;63796;53.136;14.882;2023-04-16T14:21:20;14.50;99.90
75210;DHT22;63796;53.136;14.882;2023-04-16T14:23:47;14.30;99.90
75210;DHT22;63796;53.136;14.882;2023-04-16T14:26:15;14.30;99.90
75210;DHT22;63796;53.136;14.882;2023-04-16T14:28:43;14.30;99.90
75210;DHT22;63796;53.136;14.882;2023-04-16T14:31:10;14.10;99.90
75210;DHT22;63796;53.136;14.882;2023-04-16T14:33:37;13.90;99.90
75210;DHT22;63796;53.136;14.882;2023-04-16T14:36:04;14.00;99.90
75210;DHT22;63796;53.136;14.882;2023-04-16T14:38:32;14.00;99.90
75210;DHT22;63796;53.136;14.882;2023-04-16T14:40:59;13.60;99.90
75210;DHT22;63796;53.136;14.882;2023-04-16T14:43:27;13.30;99.90
75210;DHT22;63796;53.136;14.882;2023-04-16T14:45:54;13.00;99.90
75210;DHT22;63796;53.136;14.882;2023-04-16T14:48:22;12.80;99.90
75210;DHT22;63796;53.136;14.882;2023-04-16T14:50:50;12.60;99.90
75210;DHT22;63796;53.136;14.882;2023-04-16T14:53:18;12.70;99.90
75210;DHT22;63796;53.136;14.882;2023-04-16T14:55:45;12.70;99.90
75210;DHT22;63796;53.136;14.882;2023-04-16T14:58:13;12.70;99.90
75210;DHT22;63796;53.136;14.882;2023-04-16T15:00:40;12.90;99.90
75210;DHT22;63796;53.136;14.882;2023-04-16T15:03:07;12.90;99.90
75210;DHT22;63796;53.136;14.882;2023-04-16T15:05:35;13.10;99.90
75210;DHT22;63796;53.136;14.882;2023-04-16T15:08:02;13.10;99.90
75210;DHT22;63796;53.136;14.882;2023-04-16T15:10:31;13.20;99.90
75210;DHT22;63796;53.136;14.882;2023-04-16T15:12:58;13.30;99.90
75210;DHT22;63796;53.136;14.882;2023-04-16T15:15:26;13.40;99.90
75210;DHT22;63796;53.136;14.882;2023-04-16T15:17:53;13.70;99.90
75210;DHT22;63796;53.136;14.882;2023-04-16T15:20:22;13.80;99.90
75210;DHT22;63796;53.136;14.882;2023-04-16T15:22:52;13.40;99.90
75210;DHT22;63796;53.136;14.882;2023-04-16T15:25:19;13.20;99.90
75210;DHT22;63796;53.136;14.882;2023-04-16T15:27:46;13.00;99.90
75210;DHT22;63796;53.136;14.882;2023-04-16T15:30:13;13.20;99.90